sensor_id;sensor_type;location;lat;lon;timestamp;P1;durP1;ratioP1;P2;durP2;ratioP2
60964;SDS011;46834;51.100;6.886;2023-02-02T00:00:47;11.13;;;3.00;;
60964;SDS011;46834;51.100;6.886;2023-02-02T00:03:13;12.10;;;3.20;;
60964;SDS011;46834;51.100;6.886;2023-02-02T00:05:43;8.30;;;2.58;;
60964;SDS011;46834;51.100;6.886;2023-02-02T00:08:14;11.45;;;3.70;;
60964;SDS011;46834;51.100;6.886;2023-02-02T00:10:42;9.13;;;2.80;;
60964;SDS011;46834;51.100;6.886;2023-02-02T00:13:09;6.15;;;2.53;;
60964;SDS011;46834;51.100;6.886;2023-02-02T00:15:36;9.75;;;3.45;;
60964;SDS011;46834;51.100;6.886;2023-02-02T00:18:02;7.50;;;2.83;;
60964;SDS011;46834;51.100;6.886;2023-02-02T00:20:28;10.00;;;2.88;;
60964;SDS011;46834;51.100;6.886;2023-02-02T00:22:55;6.80;;;2.63;;
60964;SDS011;46834;51.100;6.886;2023-02-02T00:25:21;8.77;;;2.95;;
60964;SDS011;46834;51.100;6.886;2023-02-02T00:27:47;10.48;;;2.67;;
60964;SDS011;46834;51.100;6.886;2023-02-02T00:30:13;9.45;;;3.03;;
60964;SDS011;46834;51.100;6.886;2023-02-02T00:32:39;9.18;;;2.75;;
60964;SDS011;46834;51.100;6.886;2023-02-02T00:35:06;11.18;;;3.05;;
60964;SDS011;46834;51.100;6.886;2023-02-02T00:37:32;9.32;;;2.67;;
60964;SDS011;46834;51.100;6.886;2023-02-02T00:39:58;7.68;;;2.97;;
60964;SDS011;46834;51.100;6.886;2023-02-02T00:42:24;9.48;;;2.90;;
60964;SDS011;46834;51.100;6.886;2023-02-02T00:44:50;10.05;;;2.80;;
60964;SDS011;46834;51.100;6.886;2023-02-02T00:47:34;12.02;;;2.80;;
60964;SDS011;46834;51.100;6.886;2023-02-02T00:50:00;15.15;;;3.40;;
60964;SDS011;46834;51.100;6.886;2023-02-02T00:52:26;8.88;;;2.95;;
60964;SDS011;46834;51.100;6.886;2023-02-02T00:54:52;9.38;;;2.58;;
60964;SDS011;46834;51.100;6.886;2023-02-02T00:57:18;6.18;;;2.33;;
60964;SDS011;46834;51.100;6.886;2023-02-02T00:59:44;9.85;;;2.92;;
60964;SDS011;46834;51.100;6.886;2023-02-02T01:02:10;10.27;;;2.83;;
60964;SDS011;46834;51.100;6.886;2023-02-02T01:04:37;8.63;;;2.92;;
60964;SDS011;46834;51.100;6.886;2023-02-02T01:07:03;7.88;;;2.90;;
60964;SDS011;46834;51.100;6.886;2023-02-02T01:09:29;11.50;;;3.90;;
60964;SDS011;46834;51.100;6.886;2023-02-02T01:11:55;10.35;;;2.67;;
60964;SDS011;46834;51.100;6.886;2023-02-02T01:14:21;14.75;;;2.90;;
60964;SDS011;46834;51.100;6.886;2023-02-02T01:16:47;8.32;;;3.00;;
60964;SDS011;46834;51.100;6.886;2023-02-02T01:19:13;13.48;;;3.17;;
60964;SDS011;46834;51.100;6.886;2023-02-02T01:21:40;9.20;;;2.75;;
60964;SDS011;46834;51.100;6.886;2023-02-02T01:24:06;9.48;;;3.05;;
60964;SDS011;46834;51.100;6.886;2023-02-02T01:26:32;11.80;;;3.25;;
60964;SDS011;46834;51.100;6.886;2023-02-02T01:28:58;9.13;;;2.90;;
60964;SDS011;46834;51.100;6.886;2023-02-02T01:31:24;11.23;;;3.10;;
60964;SDS011;46834;51.100;6.886;2023-02-02T01:33:50;11.57;;;3.38;;
60964;SDS011;46834;51.100;6.886;2023-02-02T01:36:18;11.43;;;2.72;;
60964;SDS011;46834;51.100;6.886;2023-02-02T01:38:46;11.00;;;2.45;;
60964;SDS011;46834;51.100;6.886;2023-02-02T01:41:15;9.85;;;3.15;;
60964;SDS011;46834;51.100;6.886;2023-02-02T01:46:11;10.77;;;3.00;;
60964;SDS011;46834;51.100;6.886;2023-02-02T01:49:24;7.60;;;3.00;;
60964;SDS011;46834;51.100;6.886;2023-02-02T01:51:43;8.63;;;2.83;;
60964;SDS011;46834;51.100;6.886;2023-02-02T01:54:24;12.60;;;2.90;;
60964;SDS011;46834;51.100;6.886;2023-02-02T01:56:59;11.60;;;3.37;;
60964;SDS011;46834;51.100;6.886;2023-02-02T01:59:37;10.00;;;2.78;;
60964;SDS011;46834;51.100;6.886;2023-02-02T02:02:03;6.80;;;2.70;;
60964;SDS011;46834;51.100;6.886;2023-02-02T02:04:30;10.48;;;3.40;;
60964;SDS011;46834;51.100;6.886;2023-02-02T02:06:57;9.75;;;3.03;;
60964;SDS011;46834;51.100;6.886;2023-02-02T02:09:25;7.72;;;3.03;;
60964;SDS011;46834;51.100;6.886;2023-02-02T02:11:51;10.45;;;2.70;;
60964;SDS011;46834;51.100;6.886;2023-02-02T02:14:18;10.80;;;3.00;;
60964;SDS011;46834;51.100;6.886;2023-02-02T02:29:07;9.93;;;2.55;;
60964;SDS011;46834;51.100;6.886;2023-02-02T02:32:21;15.00;;;3.53;;
60964;SDS011;46834;51.100;6.886;2023-02-02T02:35:08;12.82;;;3.63;;
60964;SDS011;46834;51.100;6.886;2023-02-02T02:38:12;5.95;;;2.30;;
60964;SDS011;46834;51.100;6.886;2023-02-02T02:40:53;9.93;;;3.00;;
60964;SDS011;46834;51.100;6.886;2023-02-02T02:43:35;9.98;;;2.38;;
60964;SDS011;46834;51.100;6.886;2023-02-02T02:46:07;7.23;;;2.53;;
60964;SDS011;46834;51.100;6.886;2023-02-02T02:48:35;8.80;;;2.95;;
60964;SDS011;46834;51.100;6.886;2023-02-02T02:51:07;9.98;;;3.08;;
60964;SDS011;46834;51.100;6.886;2023-02-02T02:54:02;8.60;;;2.83;;
60964;SDS011;46834;51.100;6.886;2023-02-02T02:56:30;11.32;;;2.80;;
60964;SDS011;46834;51.100;6.886;2023-02-02T03:11:06;9.35;;;2.67;;
60964;SDS011;46834;51.100;6.886;2023-02-02T03:13:36;8.27;;;2.60;;
60964;SDS011;46834;51.100;6.886;2023-02-02T03:16:05;8.05;;;2.70;;
60964;SDS011;46834;51.100;6.886;2023-02-02T03:18:31;9.55;;;3.05;;
60964;SDS011;46834;51.100;6.886;2023-02-02T03:20:58;11.07;;;2.67;;
60964;SDS011;46834;51.100;6.886;2023-02-02T03:23:24;8.50;;;2.90;;
60964;SDS011;46834;51.100;6.886;2023-02-02T03:25:50;6.68;;;2.63;;
60964;SDS011;46834;51.100;6.886;2023-02-02T03:28:17;11.25;;;3.33;;
60964;SDS011;46834;51.100;6.886;2023-02-02T03:30:44;13.43;;;3.35;;
60964;SDS011;46834;51.100;6.886;2023-02-02T03:33:11;6.75;;;2.97;;
60964;SDS011;46834;51.100;6.886;2023-02-02T03:35:38;10.33;;;3.37;;
60964;SDS011;46834;51.100;6.886;2023-02-02T03:38:04;8.07;;;2.80;;
60964;SDS011;46834;51.100;6.886;2023-02-02T03:40:29;8.45;;;3.38;;
60964;SDS011;46834;51.100;6.886;2023-02-02T03:42:55;9.38;;;3.08;;
60964;SDS011;46834;51.100;6.886;2023-02-02T03:45:21;8.23;;;2.55;;
60964;SDS011;46834;51.100;6.886;2023-02-02T03:47:48;14.32;;;3.00;;
60964;SDS011;46834;51.100;6.886;2023-02-02T03:50:14;10.05;;;2.38;;
60964;SDS011;46834;51.100;6.886;2023-02-02T03:52:40;11.10;;;2.60;;
60964;SDS011;46834;51.100;6.886;2023-02-02T03:55:05;8.80;;;2.55;;
60964;SDS011;46834;51.100;6.886;2023-02-02T03:57:31;6.95;;;2.35;;
60964;SDS011;46834;51.100;6.886;2023-02-02T03:59:57;10.35;;;2.58;;
60964;SDS011;46834;51.100;6.886;2023-02-02T04:02:23;10.55;;;2.63;;
60964;SDS011;46834;51.100;6.886;2023-02-02T04:04:49;9.02;;;2.95;;
60964;SDS011;46834;51.100;6.886;2023-02-02T04:07:14;9.18;;;2.85;;
60964;SDS011;46834;51.100;6.886;2023-02-02T04:09:40;11.45;;;3.38;;
60964;SDS011;46834;51.100;6.886;2023-02-02T04:12:06;8.55;;;2.78;;
60964;SDS011;46834;51.100;6.886;2023-02-02T04:14:31;6.88;;;2.47;;
60964;SDS011;46834;51.100;6.886;2023-02-02T04:16:57;10.30;;;2.42;;
60964;SDS011;46834;51.100;6.886;2023-02-02T04:19:23;9.60;;;2.40;;
60964;SDS011;46834;51.100;6.886;2023-02-02T04:21:48;8.20;;;2.75;;
60964;SDS011;46834;51.100;6.886;2023-02-02T04:24:14;10.75;;;2.95;;
60964;SDS011;46834;51.100;6.886;2023-02-02T04:26:40;8.73;;;2.92;;
60964;SDS011;46834;51.100;6.886;2023-02-02T04:29:06;5.60;;;2.40;;
60964;SDS011;46834;51.100;6.886;2023-02-02T04:31:32;7.55;;;2.50;;
60964;SDS011;46834;51.100;6.886;2023-02-02T04:33:58;8.68;;;2.75;;
60964;SDS011;46834;51.100;6.886;2023-02-02T04:36:24;9.23;;;2.70;;
60964;SDS011;46834;51.100;6.886;2023-02-02T04:38:51;8.95;;;2.80;;
60964;SDS011;46834;51.100;6.886;2023-02-02T04:41:18;12.02;;;2.78;;
60964;SDS011;46834;51.100;6.886;2023-02-02T04:43:45;6.53;;;2.78;;
60964;SDS011;46834;51.100;6.886;2023-02-02T04:46:11;10.35;;;3.08;;
60964;SDS011;46834;51.100;6.886;2023-02-02T04:48:38;12.85;;;2.92;;
60964;SDS011;46834;51.100;6.886;2023-02-02T04:51:07;7.03;;;2.60;;
60964;SDS011;46834;51.100;6.886;2023-02-02T04:53:38;9.32;;;2.53;;
60964;SDS011;46834;51.100;6.886;2023-02-02T04:56:10;10.40;;;2.67;;
60964;SDS011;46834;51.100;6.886;2023-02-02T04:58:39;10.38;;;3.33;;
60964;SDS011;46834;51.100;6.886;2023-02-02T05:01:07;7.35;;;2.53;;
60964;SDS011;46834;51.100;6.886;2023-02-02T05:03:41;8.18;;;2.97;;
60964;SDS011;46834;51.100;6.886;2023-02-02T05:06:07;10.38;;;2.50;;
60964;SDS011;46834;51.100;6.886;2023-02-02T05:08:33;13.43;;;3.42;;
60964;SDS011;46834;51.100;6.886;2023-02-02T05:11:04;9.45;;;2.67;;
60964;SDS011;46834;51.100;6.886;2023-02-02T05:13:35;10.10;;;2.88;;
60964;SDS011;46834;51.100;6.886;2023-02-02T05:16:01;8.60;;;3.17;;
60964;SDS011;46834;51.100;6.886;2023-02-02T05:18:27;12.82;;;3.20;;
60964;SDS011;46834;51.100;6.886;2023-02-02T05:20:55;8.43;;;2.55;;
60964;SDS011;46834;51.100;6.886;2023-02-02T05:23:25;7.35;;;2.70;;
60964;SDS011;46834;51.100;6.886;2023-02-02T05:25:51;14.50;;;3.03;;
60964;SDS011;46834;51.100;6.886;2023-02-02T05:28:18;11.85;;;3.28;;
60964;SDS011;46834;51.100;6.886;2023-02-02T05:30:45;11.10;;;2.88;;
60964;SDS011;46834;51.100;6.886;2023-02-02T05:33:11;9.38;;;2.80;;
60964;SDS011;46834;51.100;6.886;2023-02-02T05:35:37;8.17;;;2.83;;
60964;SDS011;46834;51.100;6.886;2023-02-02T05:38:03;8.80;;;2.42;;
60964;SDS011;46834;51.100;6.886;2023-02-02T05:40:29;9.70;;;2.80;;
60964;SDS011;46834;51.100;6.886;2023-02-02T05:42:54;6.72;;;2.78;;
60964;SDS011;46834;51.100;6.886;2023-02-02T05:45:20;10.00;;;2.90;;
60964;SDS011;46834;51.100;6.886;2023-02-02T05:47:47;11.23;;;3.50;;
60964;SDS011;46834;51.100;6.886;2023-02-02T05:50:14;10.13;;;2.95;;
60964;SDS011;46834;51.100;6.886;2023-02-02T05:52:40;9.03;;;2.70;;
60964;SDS011;46834;51.100;6.886;2023-02-02T05:55:08;7.20;;;2.70;;
60964;SDS011;46834;51.100;6.886;2023-02-02T05:57:34;10.27;;;2.63;;
60964;SDS011;46834;51.100;6.886;2023-02-02T06:00:00;7.05;;;2.72;;
60964;SDS011;46834;51.100;6.886;2023-02-02T06:02:26;9.38;;;3.10;;
60964;SDS011;46834;51.100;6.886;2023-02-02T06:04:52;10.02;;;3.03;;
60964;SDS011;46834;51.100;6.886;2023-02-02T06:07:18;12.27;;;3.17;;
60964;SDS011;46834;51.100;6.886;2023-02-02T06:09:44;10.38;;;3.33;;
60964;SDS011;46834;51.100;6.886;2023-02-02T06:12:09;10.68;;;3.40;;
60964;SDS011;46834;51.100;6.886;2023-02-02T06:14:35;9.15;;;3.13;;
60964;SDS011;46834;51.100;6.886;2023-02-02T06:17:01;9.68;;;3.00;;
60964;SDS011;46834;51.100;6.886;2023-02-02T06:19:26;12.30;;;2.90;;
60964;SDS011;46834;51.100;6.886;2023-02-02T06:21:52;10.65;;;3.15;;
60964;SDS011;46834;51.100;6.886;2023-02-02T06:24:17;13.27;;;3.63;;
60964;SDS011;46834;51.100;6.886;2023-02-02T06:26:43;10.85;;;3.28;;
60964;SDS011;46834;51.100;6.886;2023-02-02T06:29:11;11.27;;;3.60;;
60964;SDS011;46834;51.100;6.886;2023-02-02T06:31:38;7.68;;;2.47;;
60964;SDS011;46834;51.100;6.886;2023-02-02T06:34:04;7.07;;;2.80;;
60964;SDS011;46834;51.100;6.886;2023-02-02T06:36:30;10.30;;;3.13;;
60964;SDS011;46834;51.100;6.886;2023-02-02T06:38:55;9.13;;;3.47;;
60964;SDS011;46834;51.100;6.886;2023-02-02T06:41:22;8.00;;;3.10;;
60964;SDS011;46834;51.100;6.886;2023-02-02T06:43:48;7.85;;;3.03;;
60964;SDS011;46834;51.100;6.886;2023-02-02T06:46:14;9.88;;;2.85;;
60964;SDS011;46834;51.100;6.886;2023-02-02T06:48:40;11.35;;;3.65;;
60964;SDS011;46834;51.100;6.886;2023-02-02T06:51:06;10.73;;;3.67;;
60964;SDS011;46834;51.100;6.886;2023-02-02T06:53:32;8.82;;;3.55;;
60964;SDS011;46834;51.100;6.886;2023-02-02T06:55:59;9.83;;;3.13;;
60964;SDS011;46834;51.100;6.886;2023-02-02T06:58:29;11.25;;;2.70;;
60964;SDS011;46834;51.100;6.886;2023-02-02T07:01:03;9.10;;;3.38;;
60964;SDS011;46834;51.100;6.886;2023-02-02T07:03:34;12.25;;;3.05;;
60964;SDS011;46834;51.100;6.886;2023-02-02T07:06:20;8.25;;;3.35;;
60964;SDS011;46834;51.100;6.886;2023-02-02T07:08:51;7.90;;;3.07;;
60964;SDS011;46834;51.100;6.886;2023-02-02T07:11:18;10.88;;;3.30;;
60964;SDS011;46834;51.100;6.886;2023-02-02T07:13:45;8.88;;;3.17;;
60964;SDS011;46834;51.100;6.886;2023-02-02T07:16:12;9.90;;;2.85;;
60964;SDS011;46834;51.100;6.886;2023-02-02T07:18:43;6.82;;;2.95;;
60964;SDS011;46834;51.100;6.886;2023-02-02T07:21:18;7.73;;;3.10;;
60964;SDS011;46834;51.100;6.886;2023-02-02T07:23:46;7.28;;;2.70;;
60964;SDS011;46834;51.100;6.886;2023-02-02T07:26:15;10.37;;;3.33;;
60964;SDS011;46834;51.100;6.886;2023-02-02T07:28:43;7.87;;;3.17;;
60964;SDS011;46834;51.100;6.886;2023-02-02T07:31:16;7.45;;;3.20;;
60964;SDS011;46834;51.100;6.886;2023-02-02T07:33:48;8.20;;;3.28;;
60964;SDS011;46834;51.100;6.886;2023-02-02T07:36:16;11.48;;;3.35;;
60964;SDS011;46834;51.100;6.886;2023-02-02T07:38:45;8.32;;;3.40;;
60964;SDS011;46834;51.100;6.886;2023-02-02T07:41:13;6.82;;;3.03;;
60964;SDS011;46834;51.100;6.886;2023-02-02T07:43:40;9.77;;;3.57;;
60964;SDS011;46834;51.100;6.886;2023-02-02T07:46:06;9.73;;;2.97;;
60964;SDS011;46834;51.100;6.886;2023-02-02T07:48:36;8.20;;;3.10;;
60964;SDS011;46834;51.100;6.886;2023-02-02T07:51:04;6.63;;;3.20;;
60964;SDS011;46834;51.100;6.886;2023-02-02T07:53:33;7.53;;;3.25;;
60964;SDS011;46834;51.100;6.886;2023-02-02T07:58:40;7.38;;;3.00;;
60964;SDS011;46834;51.100;6.886;2023-02-02T08:01:06;6.15;;;3.38;;
60964;SDS011;46834;51.100;6.886;2023-02-02T08:03:35;9.13;;;3.53;;
60964;SDS011;46834;51.100;6.886;2023-02-02T08:06:07;9.68;;;3.97;;
60964;SDS011;46834;51.100;6.886;2023-02-02T08:08:37;7.90;;;3.33;;
60964;SDS011;46834;51.100;6.886;2023-02-02T08:11:03;6.82;;;3.08;;
60964;SDS011;46834;51.100;6.886;2023-02-02T08:13:29;11.80;;;3.50;;
60964;SDS011;46834;51.100;6.886;2023-02-02T08:15:57;7.25;;;3.50;;
60964;SDS011;46834;51.100;6.886;2023-02-02T08:18:23;7.80;;;3.08;;
60964;SDS011;46834;51.100;6.886;2023-02-02T08:20:49;11.15;;;3.78;;
60964;SDS011;46834;51.100;6.886;2023-02-02T08:23:16;7.85;;;3.30;;
60964;SDS011;46834;51.100;6.886;2023-02-02T08:25:47;13.25;;;3.75;;
60964;SDS011;46834;51.100;6.886;2023-02-02T08:28:17;7.05;;;3.53;;
60964;SDS011;46834;51.100;6.886;2023-02-02T08:30:43;11.23;;;3.45;;
60964;SDS011;46834;51.100;6.886;2023-02-02T08:33:09;8.05;;;3.65;;
60964;SDS011;46834;51.100;6.886;2023-02-02T08:35:39;8.48;;;3.13;;
60964;SDS011;46834;51.100;6.886;2023-02-02T08:38:08;7.80;;;3.47;;
60964;SDS011;46834;51.100;6.886;2023-02-02T08:40:34;8.57;;;3.10;;
60964;SDS011;46834;51.100;6.886;2023-02-02T08:43:00;7.07;;;3.40;;
60964;SDS011;46834;51.100;6.886;2023-02-02T08:45:27;11.00;;;3.53;;
60964;SDS011;46834;51.100;6.886;2023-02-02T08:47:53;10.98;;;3.67;;
60964;SDS011;46834;51.100;6.886;2023-02-02T08:50:19;8.70;;;3.60;;
60964;SDS011;46834;51.100;6.886;2023-02-02T08:52:45;13.25;;;3.58;;
60964;SDS011;46834;51.100;6.886;2023-02-02T08:55:10;12.45;;;3.22;;
60964;SDS011;46834;51.100;6.886;2023-02-02T08:57:36;8.48;;;3.45;;
60964;SDS011;46834;51.100;6.886;2023-02-02T09:00:03;8.38;;;3.25;;
60964;SDS011;46834;51.100;6.886;2023-02-02T09:02:30;6.90;;;3.08;;
60964;SDS011;46834;51.100;6.886;2023-02-02T09:04:56;11.98;;;3.38;;
60964;SDS011;46834;51.100;6.886;2023-02-02T09:07:22;10.05;;;3.10;;
60964;SDS011;46834;51.100;6.886;2023-02-02T09:09:48;8.95;;;3.33;;
60964;SDS011;46834;51.100;6.886;2023-02-02T09:12:15;8.35;;;3.47;;
60964;SDS011;46834;51.100;6.886;2023-02-02T09:14:41;8.48;;;2.85;;
60964;SDS011;46834;51.100;6.886;2023-02-02T09:17:07;9.98;;;3.22;;
60964;SDS011;46834;51.100;6.886;2023-02-02T09:19:32;10.13;;;3.25;;
60964;SDS011;46834;51.100;6.886;2023-02-02T09:21:58;9.95;;;3.58;;
60964;SDS011;46834;51.100;6.886;2023-02-02T09:24:24;11.05;;;3.60;;
60964;SDS011;46834;51.100;6.886;2023-02-02T09:26:49;9.15;;;3.17;;
60964;SDS011;46834;51.100;6.886;2023-02-02T09:29:15;7.00;;;2.85;;
60964;SDS011;46834;51.100;6.886;2023-02-02T09:31:42;8.68;;;3.55;;
60964;SDS011;46834;51.100;6.886;2023-02-02T09:34:09;6.97;;;2.95;;
60964;SDS011;46834;51.100;6.886;2023-02-02T09:36:37;8.38;;;3.00;;
60964;SDS011;46834;51.100;6.886;2023-02-02T09:39:06;8.73;;;3.30;;
60964;SDS011;46834;51.100;6.886;2023-02-02T09:41:41;9.60;;;2.97;;
60964;SDS011;46834;51.100;6.886;2023-02-02T09:47:20;9.00;;;3.28;;
60964;SDS011;46834;51.100;6.886;2023-02-02T09:53:12;11.60;;;2.92;;
60964;SDS011;46834;51.100;6.886;2023-02-02T09:56:03;8.35;;;2.65;;
60964;SDS011;46834;51.100;6.886;2023-02-02T09:58:40;8.15;;;2.85;;
60964;SDS011;46834;51.100;6.886;2023-02-02T10:01:23;8.98;;;3.67;;
60964;SDS011;46834;51.100;6.886;2023-02-02T10:03:57;6.55;;;2.80;;
60964;SDS011;46834;51.100;6.886;2023-02-02T10:06:34;7.85;;;3.15;;
60964;SDS011;46834;51.100;6.886;2023-02-02T10:09:28;8.07;;;2.67;;
60964;SDS011;46834;51.100;6.886;2023-02-02T10:15:15;9.32;;;3.25;;
60964;SDS011;46834;51.100;6.886;2023-02-02T10:18:14;8.40;;;3.38;;
60964;SDS011;46834;51.100;6.886;2023-02-02T10:20:55;7.57;;;3.50;;
60964;SDS011;46834;51.100;6.886;2023-02-02T10:23:40;4.25;;;2.92;;
60964;SDS011;46834;51.100;6.886;2023-02-02T10:28:48;9.77;;;3.65;;
60964;SDS011;46834;51.100;6.886;2023-02-02T10:34:55;12.65;;;3.50;;
60964;SDS011;46834;51.100;6.886;2023-02-02T10:47:12;6.40;;;3.80;;
60964;SDS011;46834;51.100;6.886;2023-02-02T10:57:59;8.35;;;3.35;;
60964;SDS011;46834;51.100;6.886;2023-02-02T11:03:24;7.72;;;3.25;;
60964;SDS011;46834;51.100;6.886;2023-02-02T11:05:54;5.95;;;3.28;;
60964;SDS011;46834;51.100;6.886;2023-02-02T11:08:43;7.28;;;3.28;;
60964;SDS011;46834;51.100;6.886;2023-02-02T11:14:03;11.50;;;3.88;;
60964;SDS011;46834;51.100;6.886;2023-02-02T11:17:00;12.40;;;3.92;;
60964;SDS011;46834;51.100;6.886;2023-02-02T11:19:31;9.18;;;3.85;;
60964;SDS011;46834;51.100;6.886;2023-02-02T11:22:02;7.72;;;3.25;;
60964;SDS011;46834;51.100;6.886;2023-02-02T11:24:45;8.23;;;3.60;;
60964;SDS011;46834;51.100;6.886;2023-02-02T11:27:14;7.88;;;2.90;;
60964;SDS011;46834;51.100;6.886;2023-02-02T11:30:27;7.95;;;3.53;;
60964;SDS011;46834;51.100;6.886;2023-02-02T11:32:58;7.13;;;3.03;;
60964;SDS011;46834;51.100;6.886;2023-02-02T11:35:25;8.07;;;3.33;;
60964;SDS011;46834;51.100;6.886;2023-02-02T11:42:59;8.50;;;2.78;;
60964;SDS011;46834;51.100;6.886;2023-02-02T11:45:34;6.63;;;3.28;;
60964;SDS011;46834;51.100;6.886;2023-02-02T11:48:05;11.00;;;3.25;;
60964;SDS011;46834;51.100;6.886;2023-02-02T11:50:35;9.50;;;3.10;;
60964;SDS011;46834;51.100;6.886;2023-02-02T11:53:01;7.82;;;2.72;;
60964;SDS011;46834;51.100;6.886;2023-02-02T11:55:28;8.07;;;3.00;;
60964;SDS011;46834;51.100;6.886;2023-02-02T11:58:09;7.40;;;2.78;;
60964;SDS011;46834;51.100;6.886;2023-02-02T12:00:49;7.18;;;2.80;;
60964;SDS011;46834;51.100;6.886;2023-02-02T12:03:33;7.45;;;3.00;;
60964;SDS011;46834;51.100;6.886;2023-02-02T12:06:16;8.32;;;3.30;;
60964;SDS011;46834;51.100;6.886;2023-02-02T12:08:45;6.20;;;2.80;;
60964;SDS011;46834;51.100;6.886;2023-02-02T12:11:24;8.25;;;3.38;;
60964;SDS011;46834;51.100;6.886;2023-02-02T12:14:53;8.30;;;2.70;;
60964;SDS011;46834;51.100;6.886;2023-02-02T12:17:40;6.75;;;2.83;;
60964;SDS011;46834;51.100;6.886;2023-02-02T12:31:47;8.38;;;3.25;;
60964;SDS011;46834;51.100;6.886;2023-02-02T12:44:31;6.70;;;3.17;;
60964;SDS011;46834;51.100;6.886;2023-02-02T12:57:01;9.27;;;3.15;;
60964;SDS011;46834;51.100;6.886;2023-02-02T13:02:59;9.90;;;3.75;;
60964;SDS011;46834;51.100;6.886;2023-02-02T13:11:21;7.07;;;3.00;;
60964;SDS011;46834;51.100;6.886;2023-02-02T13:14:11;8.18;;;3.20;;
60964;SDS011;46834;51.100;6.886;2023-02-02T13:16:42;7.75;;;2.90;;
60964;SDS011;46834;51.100;6.886;2023-02-02T13:19:14;7.25;;;3.55;;
60964;SDS011;46834;51.100;6.886;2023-02-02T13:21:56;6.00;;;3.20;;
60964;SDS011;46834;51.100;6.886;2023-02-02T13:24:27;7.45;;;2.78;;
60964;SDS011;46834;51.100;6.886;2023-02-02T13:26:57;6.78;;;3.28;;
60964;SDS011;46834;51.100;6.886;2023-02-02T13:29:36;7.97;;;3.15;;
60964;SDS011;46834;51.100;6.886;2023-02-02T13:32:18;5.25;;;2.38;;
60964;SDS011;46834;51.100;6.886;2023-02-02T13:38:06;7.20;;;3.05;;
60964;SDS011;46834;51.100;6.886;2023-02-02T13:40:47;8.98;;;2.83;;
60964;SDS011;46834;51.100;6.886;2023-02-02T13:46:30;6.75;;;2.50;;
60964;SDS011;46834;51.100;6.886;2023-02-02T13:50:04;5.47;;;2.47;;
60964;SDS011;46834;51.100;6.886;2023-02-02T13:58:56;5.90;;;2.75;;
60964;SDS011;46834;51.100;6.886;2023-02-02T14:01:25;6.60;;;2.88;;
60964;SDS011;46834;51.100;6.886;2023-02-02T14:03:52;6.15;;;2.50;;
60964;SDS011;46834;51.100;6.886;2023-02-02T14:06:21;6.88;;;2.80;;
60964;SDS011;46834;51.100;6.886;2023-02-02T14:11:27;6.65;;;2.85;;
60964;SDS011;46834;51.100;6.886;2023-02-02T14:14:06;6.50;;;2.10;;
60964;SDS011;46834;51.100;6.886;2023-02-02T14:22:18;9.00;;;2.80;;
60964;SDS011;46834;51.100;6.886;2023-02-02T14:27:53;6.93;;;2.40;;
60964;SDS011;46834;51.100;6.886;2023-02-02T14:30:33;8.55;;;2.45;;
60964;SDS011;46834;51.100;6.886;2023-02-02T14:33:17;5.20;;;2.17;;
60964;SDS011;46834;51.100;6.886;2023-02-02T14:38:11;7.70;;;2.40;;
60964;SDS011;46834;51.100;6.886;2023-02-02T14:41:22;7.78;;;2.30;;
60964;SDS011;46834;51.100;6.886;2023-02-02T14:45:03;6.05;;;2.10;;
60964;SDS011;46834;51.100;6.886;2023-02-02T14:50:19;4.00;;;2.00;;
60964;SDS011;46834;51.100;6.886;2023-02-02T14:53:24;5.68;;;1.70;;
60964;SDS011;46834;51.100;6.886;2023-02-02T14:56:00;3.97;;;2.13;;
60964;SDS011;46834;51.100;6.886;2023-02-02T15:03:52;5.57;;;2.10;;
60964;SDS011;46834;51.100;6.886;2023-02-02T15:09:34;4.35;;;1.80;;
60964;SDS011;46834;51.100;6.886;2023-02-02T15:14:29;3.65;;;1.75;;
60964;SDS011;46834;51.100;6.886;2023-02-02T15:23:01;3.75;;;2.00;;
60964;SDS011;46834;51.100;6.886;2023-02-02T15:28:57;5.50;;;2.28;;
60964;SDS011;46834;51.100;6.886;2023-02-02T15:34:25;3.20;;;1.80;;
60964;SDS011;46834;51.100;6.886;2023-02-02T15:37:16;6.22;;;1.75;;
60964;SDS011;46834;51.100;6.886;2023-02-02T15:39:53;5.38;;;2.28;;
60964;SDS011;46834;51.100;6.886;2023-02-02T15:42:59;5.60;;;2.00;;
60964;SDS011;46834;51.100;6.886;2023-02-02T15:48:01;8.35;;;2.25;;
60964;SDS011;46834;51.100;6.886;2023-02-02T15:50:54;4.40;;;2.03;;
60964;SDS011;46834;51.100;6.886;2023-02-02T15:58:49;3.38;;;1.88;;
60964;SDS011;46834;51.100;6.886;2023-02-02T16:01:19;5.35;;;1.80;;
60964;SDS011;46834;51.100;6.886;2023-02-02T16:03:49;6.80;;;1.83;;
60964;SDS011;46834;51.100;6.886;2023-02-02T16:06:47;5.28;;;1.80;;
60964;SDS011;46834;51.100;6.886;2023-02-02T16:09:20;3.80;;;1.90;;
60964;SDS011;46834;51.100;6.886;2023-02-02T16:11:51;10.65;;;2.83;;
60964;SDS011;46834;51.100;6.886;2023-02-02T16:14:17;10.50;;;2.55;;
60964;SDS011;46834;51.100;6.886;2023-02-02T16:16:45;5.07;;;2.33;;
60964;SDS011;46834;51.100;6.886;2023-02-02T16:19:25;7.40;;;2.20;;
60964;SDS011;46834;51.100;6.886;2023-02-02T16:24:28;5.45;;;2.13;;
60964;SDS011;46834;51.100;6.886;2023-02-02T16:26:59;9.25;;;2.42;;
60964;SDS011;46834;51.100;6.886;2023-02-02T16:29:29;4.22;;;1.95;;
60964;SDS011;46834;51.100;6.886;2023-02-02T16:31:56;5.78;;;1.92;;
60964;SDS011;46834;51.100;6.886;2023-02-02T16:37:13;2.92;;;2.25;;
60964;SDS011;46834;51.100;6.886;2023-02-02T16:39:56;5.63;;;2.38;;
60964;SDS011;46834;51.100;6.886;2023-02-02T16:43:06;4.40;;;2.03;;
60964;SDS011;46834;51.100;6.886;2023-02-02T16:53:45;5.70;;;2.50;;
60964;SDS011;46834;51.100;6.886;2023-02-02T16:56:50;5.22;;;2.55;;
60964;SDS011;46834;51.100;6.886;2023-02-02T16:59:25;4.38;;;2.20;;
60964;SDS011;46834;51.100;6.886;2023-02-02T17:01:57;5.30;;;2.20;;
60964;SDS011;46834;51.100;6.886;2023-02-02T17:08:28;3.70;;;1.98;;
60964;SDS011;46834;51.100;6.886;2023-02-02T17:11:04;6.63;;;2.72;;
60964;SDS011;46834;51.100;6.886;2023-02-02T17:13:51;4.38;;;2.30;;
60964;SDS011;46834;51.100;6.886;2023-02-02T17:16:22;6.35;;;2.20;;
60964;SDS011;46834;51.100;6.886;2023-02-02T17:18:49;7.00;;;2.67;;
60964;SDS011;46834;51.100;6.886;2023-02-02T17:21:17;4.20;;;2.33;;
60964;SDS011;46834;51.100;6.886;2023-02-02T17:23:46;5.15;;;2.67;;
60964;SDS011;46834;51.100;6.886;2023-02-02T17:26:15;4.57;;;2.50;;
60964;SDS011;46834;51.100;6.886;2023-02-02T17:28:41;4.38;;;2.15;;
60964;SDS011;46834;51.100;6.886;2023-02-02T17:31:08;7.18;;;2.65;;
60964;SDS011;46834;51.100;6.886;2023-02-02T17:33:38;4.32;;;2.50;;
60964;SDS011;46834;51.100;6.886;2023-02-02T17:36:05;5.20;;;2.45;;
60964;SDS011;46834;51.100;6.886;2023-02-02T17:38:31;5.53;;;2.40;;
60964;SDS011;46834;51.100;6.886;2023-02-02T17:40:58;5.72;;;2.65;;
60964;SDS011;46834;51.100;6.886;2023-02-02T17:43:26;4.50;;;3.00;;
60964;SDS011;46834;51.100;6.886;2023-02-02T17:45:53;6.30;;;3.10;;
60964;SDS011;46834;51.100;6.886;2023-02-02T17:48:19;4.53;;;2.83;;
60964;SDS011;46834;51.100;6.886;2023-02-02T17:50:45;6.70;;;2.88;;
60964;SDS011;46834;51.100;6.886;2023-02-02T17:53:12;5.38;;;2.67;;
60964;SDS011;46834;51.100;6.886;2023-02-02T17:55:42;5.05;;;2.70;;
60964;SDS011;46834;51.100;6.886;2023-02-02T17:58:10;5.07;;;2.90;;
60964;SDS011;46834;51.100;6.886;2023-02-02T18:00:39;7.82;;;2.97;;
60964;SDS011;46834;51.100;6.886;2023-02-02T18:05:48;9.20;;;2.90;;
60964;SDS011;46834;51.100;6.886;2023-02-02T18:08:15;4.30;;;3.10;;
60964;SDS011;46834;51.100;6.886;2023-02-02T18:10:41;3.40;;;3.10;;
60964;SDS011;46834;51.100;6.886;2023-02-02T18:13:09;6.95;;;3.45;;
60964;SDS011;46834;51.100;6.886;2023-02-02T18:15:40;7.03;;;3.13;;
60964;SDS011;46834;51.100;6.886;2023-02-02T18:18:06;5.38;;;3.28;;
60964;SDS011;46834;51.100;6.886;2023-02-02T18:20:32;8.30;;;3.58;;
60964;SDS011;46834;51.100;6.886;2023-02-02T18:23:00;5.15;;;3.30;;